Time;durP1;ratioP1;P1;durP2;ratioP2;P2;SDS_P1;SDS_P2;PMS_P1;PMS_P2;Temp;Humidity;BMP_temperature;BMP_pressure;BME280_temperature;BME280_humidity;BME280_pressure;Samples;Min_cycle;Max_cycle;Signal;HPM_P1;HPM_P2
2021/10/09 00:00:31;;;;;;;4.85;2.78;;;;;;;25.68;39.79;97443.34;5019484;28;20041;-33
2021/10/09 00:02:56;;;;;;;6.03;2.70;;;;;;;25.67;39.95;97436.34;5027140;28;20021;-38
2021/10/09 00:05:22;;;;;;;6.30;3.03;;;;;;;25.68;39.95;97437.22;5028470;28;20041;-34
2021/10/09 00:07:47;;;;;;;5.32;2.80;;;;;;;25.67;39.91;97444.22;5025735;28;20131;-34
2021/10/09 00:10:23;;;;;;;3.97;3.17;;;;;;;25.67;39.80;97440.78;5022036;28;20499;-35
2021/10/09 00:12:48;;;;;;;4.95;3.00;;;;;;;25.68;39.69;97443.34;5026840;28;20097;-36
2021/10/09 00:15:14;;;;;;;4.82;2.90;;;;;;;25.67;39.87;97448.66;5024675;28;20507;-36
2021/10/09 00:17:40;;;;;;;4.68;3.35;;;;;;;25.67;39.66;97443.41;5021147;28;20036;-31
2021/10/09 00:20:06;;;;;;;5.18;3.10;;;;;;;25.66;39.76;97450.41;5018454;28;20032;-33
2021/10/09 00:22:31;;;;;;;6.28;3.05;;;;;;;25.66;39.73;97453.03;5015355;28;20060;-34
2021/10/09 00:24:57;;;;;;;7.22;3.67;;;;;;;25.67;39.57;97448.66;5019637;28;20519;-31
2021/10/09 00:27:22;;;;;;;5.88;3.10;;;;;;;25.66;39.76;97447.78;5014938;28;20033;-34
2021/10/09 00:29:47;;;;;;;8.48;3.13;;;;;;;25.66;39.76;97447.78;5014715;28;20030;-29
2021/10/09 00:32:13;;;;;;;6.13;3.20;;;;;;;25.67;39.60;97448.66;5013267;28;20091;-39
2021/10/09 00:34:38;;;;;;;4.22;3.00;;;;;;;25.66;39.74;97452.19;5016635;28;20037;-30
2021/10/09 00:37:04;;;;;;;8.48;3.13;;;;;;;25.65;39.69;97448.72;5015246;28;20075;-30
2021/10/09 00:39:29;;;;;;;6.68;3.38;;;;;;;25.67;39.62;97443.41;5018164;28;20021;-34
2021/10/09 00:41:55;;;;;;;7.88;3.15;;;;;;;25.66;39.56;97442.53;5014599;28;20610;-32
2021/10/09 00:44:20;;;;;;;4.22;2.78;;;;;;;25.66;39.66;97441.69;5007463;28;20072;-34
2021/10/09 00:46:46;;;;;;;5.65;3.08;;;;;;;25.63;39.56;97439.19;5013970;28;20040;-33
2021/10/09 00:49:15;;;;;;;4.18;2.70;;;;;;;25.66;39.68;97447.78;5019637;28;20063;-37
2021/10/09 00:51:44;;;;;;;3.70;3.05;;;;;;;25.65;39.56;97443.47;5012346;28;20036;-32
2021/10/09 00:54:10;;;;;;;5.43;3.38;;;;;;;25.63;39.58;97436.56;5013613;28;20036;-31
2021/10/09 00:56:36;;;;;;;3.67;2.63;;;;;;;25.66;39.55;97442.53;4995294;28;20024;-31
2021/10/09 00:59:02;;;;;;;3.83;3.13;;;;;;;25.65;39.47;97438.22;5011976;28;20830;-32
2021/10/09 01:01:27;;;;;;;5.82;2.95;;;;;;;25.66;39.55;97431.19;5017796;28;20110;-31
2021/10/09 01:03:53;;;;;;;3.90;2.97;;;;;;;25.65;39.55;97435.59;5004577;28;20028;-30
2021/10/09 01:06:18;;;;;;;4.55;2.95;;;;;;;25.65;39.29;97442.59;5019614;28;20024;-34
2021/10/09 01:08:44;;;;;;;5.30;2.72;;;;;;;25.65;39.33;97435.59;5010161;28;20032;-39
2021/10/09 01:11:09;;;;;;;3.60;2.78;;;;;;;25.65;39.74;97429.47;5017686;28;20550;-37
2021/10/09 01:13:35;;;;;;;5.45;3.20;;;;;;;25.65;39.57;97432.09;5020392;28;20029;-35
2021/10/09 01:16:00;;;;;;;3.58;2.88;;;;;;;25.65;39.57;97435.59;5018040;28;20547;-36
2021/10/09 01:18:25;;;;;;;4.80;3.20;;;;;;;25.65;39.60;97429.47;5014185;28;20021;-34
2021/10/09 01:20:54;;;;;;;4.63;3.10;;;;;;;25.64;39.48;97438.28;5014318;28;20484;-33
2021/10/09 01:23:20;;;;;;;4.00;2.88;;;;;;;25.64;39.39;97427.75;5020506;28;20040;-37
2021/10/09 01:25:46;;;;;;;4.32;3.00;;;;;;;25.64;39.51;97433.00;5019666;28;20028;-32
2021/10/09 01:28:12;;;;;;;6.63;3.10;;;;;;;25.64;39.41;97425.13;5001668;28;20029;-30
2021/10/09 01:30:37;;;;;;;6.85;4.07;;;;;;;25.64;39.32;97423.38;5016880;28;20580;-30
2021/10/09 01:33:03;;;;;;;4.63;3.20;;;;;;;25.65;39.29;97430.34;5014980;28;20039;-32
2021/10/09 01:35:28;;;;;;;7.88;3.55;;;;;;;25.64;39.32;97423.38;5014858;28;20036;-37
2021/10/09 01:37:53;;;;;;;7.60;3.38;;;;;;;25.64;39.44;97412.88;5013728;28;20025;-33
2021/10/09 01:40:19;;;;;;;5.57;2.95;;;;;;;25.64;39.44;97423.38;5016814;28;20554;-36
2021/10/09 01:42:44;;;;;;;4.85;3.08;;;;;;;25.64;39.44;97412.88;5024189;28;20033;-34
2021/10/09 01:45:10;;;;;;;8.70;2.92;;;;;;;25.64;39.48;97417.25;5021099;28;20463;-31
2021/10/09 01:47:41;;;;;;;4.75;3.40;;;;;;;25.64;39.23;97417.25;5019234;28;20041;-37
2021/10/09 01:50:10;;;;;;;5.03;2.90;;;;;;;25.64;39.38;97419.88;5023612;28;20029;-32
2021/10/09 01:52:35;;;;;;;3.75;2.92;;;;;;;25.63;39.29;97411.16;5029478;28;20039;-34
2021/10/09 01:55:01;;;;;;;4.20;3.10;;;;;;;25.61;39.26;97413.00;5021892;28;20024;-36
2021/10/09 01:57:26;;;;;;;4.60;3.15;;;;;;;25.63;39.19;97410.31;5020097;28;20071;-31
2021/10/09 01:59:51;;;;;;;4.50;3.20;;;;;;;25.63;39.30;97412.94;5024874;28;20029;-35
2021/10/09 02:02:17;;;;;;;4.65;3.08;;;;;;;25.63;39.28;97410.31;5020696;28;20032;-34
2021/10/09 02:04:42;;;;;;;6.18;3.28;;;;;;;25.62;39.20;97417.31;5021676;28;20030;-34
2021/10/09 02:07:13;;;;;;;5.57;3.33;;;;;;;25.63;39.31;97410.31;5018578;28;20269;-36
2021/10/09 02:09:38;;;;;;;3.80;3.10;;;;;;;25.62;39.18;97413.88;5023602;28;20032;-30
2021/10/09 02:12:04;;;;;;;5.18;2.90;;;;;;;25.60;39.28;97410.44;5018603;28;20515;-32
2021/10/09 02:14:43;;;;;;;4.68;3.35;;;;;;;25.62;39.17;97413.88;5019819;28;20116;-35
2021/10/09 02:17:26;;;;;;;5.00;2.95;;;;;;;25.62;39.30;97419.13;5017854;28;20024;-36
2021/10/09 02:27:55;;;;;;;5.22;3.47;;;;;;;25.61;39.04;97412.13;5026799;28;20196;-32
2021/10/09 02:30:21;;;;;;;4.80;3.20;;;;;;;25.60;39.25;97406.06;5029166;28;20051;-37
2021/10/09 02:32:46;;;;;;;6.30;2.90;;;;;;;25.61;39.20;97409.50;5016728;28;20021;-37
2021/10/09 02:35:11;;;;;;;5.55;2.88;;;;;;;25.60;39.08;97410.44;5020450;28;20602;-34
2021/10/09 02:37:37;;;;;;;4.32;3.28;;;;;;;25.61;39.19;97406.88;5021867;28;20032;-32
2021/10/09 02:40:03;;;;;;;5.55;3.10;;;;;;;25.61;39.14;97412.13;5019962;28;20044;-38
2021/10/09 02:42:28;;;;;;;7.45;3.08;;;;;;;25.60;39.12;97411.31;5021757;28;20301;-40
2021/10/09 02:44:53;;;;;;;3.55;2.83;;;;;;;25.59;39.04;97401.69;5022990;28;20025;-32
2021/10/09 02:47:19;;;;;;;5.72;3.35;;;;;;;25.59;39.00;97404.31;5018628;28;20091;-35
2021/10/09 02:49:44;;;;;;;3.83;3.30;;;;;;;25.60;39.17;97399.94;5023004;28;20025;-32
2021/10/09 02:52:09;;;;;;;4.88;3.00;;;;;;;25.60;39.14;97402.56;5019257;28;20716;-35
2021/10/09 02:54:35;;;;;;;4.50;3.05;;;;;;;25.60;39.15;97405.19;5021576;28;20036;-38
2021/10/09 02:57:00;;;;;;;5.80;3.10;;;;;;;25.59;39.06;97404.31;5021052;28;20047;-36
2021/10/09 02:59:26;;;;;;;4.25;2.90;;;;;;;25.59;39.07;97398.25;5021761;28;20029;-36
2021/10/09 03:01:51;;;;;;;4.40;2.85;;;;;;;25.57;38.87;97409.66;5020618;28;20047;-38
2021/10/09 03:04:16;;;;;;;4.70;2.90;;;;;;;25.57;39.07;97407.03;5024277;28;20032;-34
2021/10/09 03:06:42;;;;;;;5.00;3.00;;;;;;;25.58;39.01;97402.63;5021743;28;20040;-33
2021/10/09 03:09:07;;;;;;;4.32;2.78;;;;;;;25.57;39.00;97404.41;5019712;28;20032;-33
2021/10/09 03:11:33;;;;;;;4.40;3.15;;;;;;;25.57;38.91;97399.16;5021797;28;20071;-28
2021/10/09 03:13:58;;;;;;;7.43;3.38;;;;;;;25.57;38.89;97401.78;5018761;28;20037;-34
2021/10/09 03:16:24;;;;;;;5.20;2.97;;;;;;;25.56;39.06;97400.06;5022764;28;20033;-32
2021/10/09 03:18:50;;;;;;;3.58;2.85;;;;;;;25.57;38.89;97391.28;5016978;28;20461;-35
2021/10/09 03:21:15;;;;;;;6.68;3.13;;;;;;;25.57;39.00;97401.78;5016882;28;20072;-33
2021/10/09 03:23:40;;;;;;;5.18;3.25;;;;;;;25.57;38.70;97403.56;5017715;28;20040;-36
2021/10/09 03:26:06;;;;;;;4.38;3.15;;;;;;;25.56;38.98;97400.06;5013328;28;20044;-30
2021/10/09 03:28:31;;;;;;;4.35;3.00;;;;;;;25.57;38.88;97407.03;5013913;28;20636;-35
2021/10/09 03:30:57;;;;;;;5.05;3.03;;;;;;;25.57;38.92;97396.53;5013308;28;20029;-33
2021/10/09 03:33:22;;;;;;;4.47;3.05;;;;;;;25.57;38.89;97401.78;5015454;28;20052;-30
2021/10/09 03:35:47;;;;;;;3.95;2.95;;;;;;;25.56;38.93;97400.06;5022379;28;20573;-32
2021/10/09 03:38:13;;;;;;;4.50;2.90;;;;;;;25.56;38.78;97393.97;5021623;28;20029;-33
2021/10/09 03:40:40;;;;;;;6.35;3.25;;;;;;;25.55;38.77;97398.34;5017937;28;20469;-36
2021/10/09 03:43:12;;;;;;;3.42;2.85;;;;;;;25.55;38.70;97403.59;5021838;28;20768;-38
2021/10/09 03:53:48;;;;;;;5.70;3.30;;;;;;;25.55;38.72;97408.84;5027963;28;20090;-35
2021/10/09 03:56:13;;;;;;;4.80;2.90;;;;;;;25.54;38.81;97409.75;5021710;28;20513;-38
2021/10/09 03:58:39;;;;;;;5.28;3.20;;;;;;;25.52;38.76;97408.94;5020448;28;20402;-34
2021/10/09 04:01:04;;;;;;;5.78;2.60;;;;;;;25.54;38.80;97407.13;5019843;28;20055;-32
2021/10/09 04:03:29;;;;;;;4.55;3.00;;;;;;;25.54;38.76;97416.75;5020978;28;20368;-32
2021/10/09 04:05:55;;;;;;;4.63;2.83;;;;;;;25.54;38.68;97412.38;5022148;28;20044;-32
2021/10/09 04:08:20;;;;;;;7.03;2.80;;;;;;;25.55;38.66;97413.25;5019717;28;20044;-32
2021/10/09 04:10:46;;;;;;;3.20;2.90;;;;;;;25.54;38.77;97412.38;5018480;28;20032;-37
2021/10/09 04:13:11;;;;;;;4.05;2.50;;;;;;;25.54;38.64;97414.13;5023042;28;20044;-37
2021/10/09 04:15:36;;;;;;;4.05;2.80;;;;;;;25.54;38.56;97414.13;5020446;28;20040;-40
2021/10/09 04:18:02;;;;;;;5.05;2.90;;;;;;;25.53;38.62;97410.69;5018620;28;20091;-30
2021/10/09 04:20:27;;;;;;;4.32;2.75;;;;;;;25.52;38.70;97406.31;5023227;28;20021;-33
2021/10/09 04:22:52;;;;;;;3.63;3.05;;;;;;;25.52;38.70;97411.56;5021172;28;20028;-33
2021/10/09 04:25:18;;;;;;;3.90;2.85;;;;;;;25.52;38.71;97408.13;5017632;28;20021;-36
2021/10/09 04:27:43;;;;;;;5.93;3.22;;;;;;;25.52;38.63;97414.19;5020737;28;20047;-39
2021/10/09 04:30:09;;;;;;;3.00;2.58;;;;;;;25.52;38.66;97414.19;5018956;28;20104;-32
2021/10/09 04:32:35;;;;;;;5.15;2.80;;;;;;;25.51;38.58;97415.13;5021465;28;20028;-34
2021/10/09 04:35:00;;;;;;;3.97;2.88;;;;;;;25.52;38.52;97419.44;5022122;28;21882;-30
2021/10/09 04:37:25;;;;;;;4.18;2.60;;;;;;;25.51;38.50;97412.50;5019911;28;20484;-35
2021/10/09 04:39:52;;;;;;;2.80;2.50;;;;;;;25.52;38.58;97416.00;5013919;28;20405;-34
2021/10/09 04:42:17;;;;;;;5.78;2.92;;;;;;;25.51;38.65;97417.75;5015916;28;20447;-32
2021/10/09 04:44:42;;;;;;;4.70;3.05;;;;;;;25.51;38.68;97409.88;5015370;28;20091;-33
2021/10/09 04:47:08;;;;;;;4.18;2.83;;;;;;;25.51;38.45;97409.88;5018478;28;20025;-37
2021/10/09 04:49:33;;;;;;;3.65;2.80;;;;;;;25.51;38.45;97420.38;5018843;28;20499;-31
2021/10/09 04:51:58;;;;;;;3.63;2.80;;;;;;;25.51;38.48;97415.13;5017429;28;20029;-34
2021/10/09 04:54:24;;;;;;;3.80;2.70;;;;;;;25.51;38.63;97417.75;5015696;28;20017;-31
2021/10/09 04:56:49;;;;;;;3.85;2.92;;;;;;;25.51;38.48;97414.28;5018320;28;20744;-31
2021/10/09 04:59:15;;;;;;;3.22;2.63;;;;;;;25.51;38.43;97419.53;5019403;28;20039;-36
2021/10/09 05:01:40;;;;;;;3.20;2.90;;;;;;;25.50;38.58;97413.44;5019727;28;20040;-33
2021/10/09 05:04:05;;;;;;;3.83;3.17;;;;;;;25.49;38.46;97411.72;5021843;28;20060;-30
2021/10/09 05:06:31;;;;;;;3.22;2.75;;;;;;;25.50;38.49;97416.06;5023685;28;20025;-32
2021/10/09 05:08:56;;;;;;;3.72;2.85;;;;;;;25.50;38.57;97421.31;5021665;28;20053;-37
2021/10/09 05:11:22;;;;;;;5.40;2.80;;;;;;;25.49;38.54;97414.34;5026676;28;20037;-32
2021/10/09 05:13:47;;;;;;;4.18;2.72;;;;;;;25.50;38.56;97413.44;5018915;28;20029;-35
2021/10/09 05:16:12;;;;;;;5.50;2.97;;;;;;;25.51;38.41;97419.53;5019741;28;20044;-30
2021/10/09 05:18:38;;;;;;;4.80;2.80;;;;;;;25.50;38.40;97416.06;5016859;28;20029;-33
2021/10/09 05:21:03;;;;;;;4.45;2.90;;;;;;;25.51;38.59;97416.91;5020137;28;22688;-33
2021/10/09 05:23:31;;;;;;;5.18;2.63;;;;;;;25.50;38.53;97415.19;5022641;28;20466;-34
2021/10/09 05:25:57;;;;;;;4.55;2.55;;;;;;;25.50;38.55;97421.31;5023332;28;20028;-32
2021/10/09 05:28:35;;;;;;;3.47;2.88;;;;;;;25.50;38.44;97421.31;5023833;28;20025;-38
2021/10/09 05:31:01;;;;;;;3.47;2.60;;;;;;;25.49;38.63;97422.22;5021417;28;20029;-30
2021/10/09 05:36:01;;;;;;;5.32;2.70;;;;;;;25.48;38.59;97423.16;5019377;28;20031;-38
2021/10/09 05:38:26;;;;;;;5.78;2.72;;;;;;;25.50;38.60;97430.94;5023965;28;20559;-33
2021/10/09 05:40:52;;;;;;;3.25;2.60;;;;;;;25.49;38.33;97424.84;5023405;28;20032;-34
2021/10/09 05:43:18;;;;;;;3.67;2.35;;;;;;;25.48;38.45;97428.41;5023409;28;20091;-35
2021/10/09 05:45:43;;;;;;;3.35;2.60;;;;;;;25.49;38.36;97437.97;5022776;28;20067;-35
2021/10/09 05:48:09;;;;;;;3.72;2.80;;;;;;;25.49;38.50;97443.22;5023542;28;20037;-35
2021/10/09 05:56:03;;;;;;;3.22;2.38;;;;;;;25.48;38.35;97438.03;5021565;28;20037;-33
2021/10/09 06:50:23;;;;;;;16.38;3.40;;;;;;;25.48;38.24;97491.38;5022435;28;20025;-35
2021/10/09 07:00:29;;;;;;;11.95;3.53;;;;;;;25.53;38.34;97493.78;5023758;28;20203;-32
2021/10/09 07:02:55;;;;;;;11.93;4.30;;;;;;;25.54;38.14;97495.50;5026155;28;21047;-33
2021/10/09 07:05:20;;;;;;;8.75;4.05;;;;;;;25.54;38.20;97495.50;5023319;28;20045;-31
2021/10/09 07:07:52;;;;;;;18.05;4.43;;;;;;;25.56;38.13;97499.78;5019542;28;20033;-35
2021/10/09 07:10:18;;;;;;;14.50;3.95;;;;;;;25.57;38.23;97496.28;5011484;28;20037;-32
2021/10/09 07:12:43;;;;;;;12.45;3.90;;;;;;;25.58;38.15;97491.84;5024154;28;20032;-33
2021/10/09 07:15:10;;;;;;;10.57;3.80;;;;;;;25.60;38.10;97489.19;5020506;28;20650;-37
2021/10/09 07:17:35;;;;;;;15.75;4.28;;;;;;;25.61;37.98;97490.88;5024985;28;20070;-34
2021/10/09 07:20:01;;;;;;;8.38;4.00;;;;;;;25.61;38.22;97496.13;5021144;28;21919;-36
2021/10/09 07:22:27;;;;;;;10.30;4.55;;;;;;;25.62;38.23;97503.94;5022936;28;20029;-35
2021/10/09 07:24:52;;;;;;;13.43;3.67;;;;;;;25.63;38.02;97499.56;5018983;28;20029;-32
2021/10/09 07:27:17;;;;;;;11.55;4.00;;;;;;;25.65;38.19;97497.72;5019802;28;20029;-31
2021/10/09 07:29:43;;;;;;;11.68;3.95;;;;;;;25.66;37.99;97494.19;5020672;28;20063;-29
2021/10/09 07:32:08;;;;;;;10.23;3.78;;;;;;;25.66;38.06;97505.53;5022586;28;20030;-32
2021/10/09 07:34:34;;;;;;;12.88;3.78;;;;;;;25.68;38.02;97502.84;5018537;28;20036;-34
2021/10/09 07:36:59;;;;;;;9.60;3.90;;;;;;;25.69;38.18;97499.28;5020655;28;20565;-34
2021/10/09 07:39:25;;;;;;;10.80;3.83;;;;;;;25.70;37.96;97506.25;5022893;28;20033;-31
2021/10/09 07:41:52;;;;;;;8.57;3.70;;;;;;;25.70;37.99;97506.25;5020884;28;20094;-33
2021/10/09 07:44:22;;;;;;;12.13;3.80;;;;;;;25.71;38.02;97507.97;5019694;28;20577;-36
2021/10/09 07:46:48;;;;;;;12.40;3.78;;;;;;;25.72;38.23;97504.44;5019253;28;20083;-33
2021/10/09 07:49:13;;;;;;;27.67;3.85;;;;;;;25.73;37.99;97505.28;5021470;28;20041;-32
2021/10/09 07:51:39;;;;;;;5.25;3.58;;;;;;;25.74;38.13;97502.56;5025189;28;21025;-35
2021/10/09 07:54:04;;;;;;;9.95;3.78;;;;;;;25.75;38.08;97509.56;5023936;28;20544;-32
2021/10/09 07:56:30;;;;;;;7.28;3.72;;;;;;;25.75;38.11;97504.31;5019683;28;20056;-33
2021/10/09 07:58:56;;;;;;;9.40;3.70;;;;;;;25.76;37.91;97499.88;5018667;28;20017;-33
2021/10/09 08:01:21;;;;;;;10.52;3.92;;;;;;;25.77;37.94;97501.59;5019475;28;20114;-33
2021/10/09 08:03:47;;;;;;;8.13;3.42;;;;;;;25.77;37.94;97494.59;5020649;28;20205;-36
2021/10/09 08:06:12;;;;;;;10.15;3.83;;;;;;;25.78;38.13;97498.06;5022531;28;20119;-33
2021/10/09 08:08:38;;;;;;;5.10;3.08;;;;;;;25.79;38.04;97499.78;5023817;28;20028;-33
2021/10/09 08:11:03;;;;;;;4.88;2.90;;;;;;;25.79;38.05;97500.63;5020492;28;20522;-33
2021/10/09 08:13:29;;;;;;;6.30;3.25;;;;;;;25.80;38.28;97502.34;5019457;28;20029;-32
2021/10/09 08:15:54;;;;;;;7.65;3.22;;;;;;;25.82;38.28;97503.13;5020948;28;20524;-37
2021/10/09 08:18:20;;;;;;;9.45;3.95;;;;;;;25.83;38.25;97502.19;5017484;28;20040;-37
2021/10/09 08:20:49;;;;;;;7.60;3.53;;;;;;;25.83;38.16;97510.06;5022427;28;20024;-35
2021/10/09 08:23:19;;;;;;;7.00;3.35;;;;;;;25.85;38.21;97504.75;5020466;28;20025;-37
2021/10/09 08:39:09;;;;;;;17.55;7.13;;;;;;;25.88;37.17;97512.50;5018223;28;20106;-32
2021/10/09 08:41:34;;;;;;;18.83;9.40;;;;;;;25.83;34.56;97506.59;5016960;28;20067;-31
2021/10/09 08:43:59;;;;;;;19.63;10.13;;;;;;;25.72;32.65;97507.06;5018240;28;20032;-30
2021/10/09 08:46:25;;;;;;;14.57;10.55;;;;;;;25.66;31.97;97515.19;5021571;28;21006;-32
2021/10/09 08:48:51;;;;;;;17.90;11.00;;;;;;;25.55;31.25;97511.19;5020235;28;20022;-39
2021/10/09 08:51:25;;;;;;;19.92;11.10;;;;;;;25.44;29.86;97510.78;5017016;28;20028;-31
2021/10/09 08:53:50;;;;;;;18.88;9.80;;;;;;;25.33;31.40;97518.22;5019278;28;20093;-37
2021/10/09 08:56:31;;;;;;;18.60;8.98;;;;;;;25.24;31.87;97512.41;5004996;28;20534;-33
2021/10/09 08:59:21;;;;;;;17.23;8.35;;;;;;;25.21;32.61;97511.69;5016124;28;20059;-34
2021/10/09 09:02:00;;;;;;;18.85;8.05;;;;;;;25.18;33.07;97515.28;5016378;28;20029;-35
2021/10/09 09:34:24;;;;;;;16.10;6.82;;;;;;;25.49;35.00;97514.06;5019063;28;20827;-31
2021/10/09 09:37:19;;;;;;;20.75;6.88;;;;;;;25.51;35.20;97511.38;5017408;28;20033;-31
2021/10/09 09:39:44;;;;;;;16.23;7.18;;;;;;;25.54;35.36;97517.34;5018780;28;20613;-32
2021/10/09 09:42:10;;;;;;;18.50;7.35;;;;;;;25.57;35.60;97513.78;5011345;28;20029;-34
2021/10/09 09:44:36;;;;;;;17.48;6.68;;;;;;;25.60;35.88;97510.19;5013505;28;20596;-36
2021/10/09 09:47:08;;;;;;;14.48;6.70;;;;;;;25.61;36.37;97511.88;5023639;28;20029;-36
2021/10/09 09:49:33;;;;;;;14.05;7.18;;;;;;;25.64;36.73;97511.75;5032102;28;21012;-32
2021/10/09 09:51:59;;;;;;;16.92;6.85;;;;;;;25.66;36.99;97515.19;5027072;28;20063;-35
2021/10/09 09:54:27;;;;;;;21.45;6.80;;;;;;;25.67;37.11;97511.66;5020762;28;20053;-34
2021/10/09 09:57:00;;;;;;;12.50;6.57;;;;;;;25.69;37.20;97508.03;5028952;28;20515;-36
2021/10/09 09:59:31;;;;;;;14.93;6.57;;;;;;;25.71;37.41;97505.34;5026424;28;20744;-38
2021/10/09 10:02:00;;;;;;;18.48;6.53;;;;;;;25.69;37.53;97500.16;5030038;28;20030;-34
2021/10/09 10:04:25;;;;;;;11.95;6.28;;;;;;;25.74;37.66;97504.38;5008790;28;20036;-31
2021/10/09 10:06:51;;;;;;;11.52;6.55;;;;;;;25.75;37.69;97508.69;5025485;28;20678;-29
2021/10/09 10:09:16;;;;;;;12.13;6.50;;;;;;;25.76;37.88;97507.75;5024670;28;20108;-34
2021/10/09 10:11:42;;;;;;;11.95;5.88;;;;;;;25.77;37.98;97512.09;5015579;28;20040;-28
2021/10/09 10:14:07;;;;;;;14.23;6.30;;;;;;;25.74;38.07;97501.75;5015076;28;20095;-35
2021/10/09 10:16:33;;;;;;;10.52;6.25;;;;;;;25.77;38.19;97505.09;5026356;28;20036;-34
2021/10/09 10:18:58;;;;;;;13.05;5.95;;;;;;;25.79;38.26;97505.03;5029441;28;20025;-34
2021/10/09 10:21:36;;;;;;;16.27;6.70;;;;;;;25.79;38.19;97513.75;5022470;28;20036;-35
2021/10/09 10:24:01;;;;;;;14.05;6.20;;;;;;;25.79;38.21;97519.03;5022007;28;20060;-32
2021/10/09 10:26:30;;;;;;;13.18;5.97;;;;;;;25.80;38.18;97515.47;5025593;28;20036;-27
2021/10/09 10:28:55;;;;;;;10.25;5.65;;;;;;;25.81;38.06;97513.69;5024821;28;20018;-34
2021/10/09 10:31:21;;;;;;;13.57;5.85;;;;;;;25.81;38.28;97511.91;5030247;28;20029;-34
2021/10/09 10:33:58;;;;;;;9.25;5.60;;;;;;;25.84;38.58;97513.56;5025929;28;20485;-34
2021/10/09 10:36:40;;;;;;;15.38;5.53;;;;;;;25.85;38.65;97509.16;5027866;28;20032;-34
2021/10/09 10:39:06;;;;;;;9.57;5.55;;;;;;;25.86;38.70;97509.13;5029454;28;20135;-35
2021/10/09 10:45:06;;;;;;;10.20;5.53;;;;;;;25.87;38.84;97505.56;5034710;28;20079;-29
2021/10/09 10:50:47;;;;;;;9.05;5.00;;;;;;;25.88;39.10;97512.50;5031892;28;20033;-33
2021/10/09 10:53:22;;;;;;;8.65;4.72;;;;;;;25.89;39.12;97510.75;5028032;28;21218;-36
2021/10/09 10:56:08;;;;;;;10.32;4.65;;;;;;;25.89;39.23;97505.50;5025929;28;20728;-36
2021/10/09 10:58:34;;;;;;;9.13;4.47;;;;;;;25.90;39.23;97508.03;5031738;28;20566;-33
2021/10/09 11:01:16;;;;;;;8.45;4.85;;;;;;;25.90;39.23;97508.03;5031087;28;20029;-35
2021/10/09 11:03:52;;;;;;;9.63;5.10;;;;;;;25.88;39.33;97503.75;5030495;28;20607;-30
2021/10/09 11:06:19;;;;;;;7.75;4.32;;;;;;;25.91;39.34;97503.66;5028409;28;20083;-36
2021/10/09 11:08:45;;;;;;;7.20;4.07;;;;;;;25.91;39.37;97503.66;5030212;28;20036;-34
2021/10/09 11:11:11;;;;;;;8.45;5.45;;;;;;;25.92;38.73;97510.59;5015392;28;20463;-33
2021/10/09 11:13:37;;;;;;;6.90;5.22;;;;;;;25.91;37.60;97503.66;5026468;28;20036;-39
2021/10/09 11:16:03;;;;;;;8.00;4.47;;;;;;;25.90;38.58;97507.19;5033973;28;20281;-36
2021/10/09 11:18:28;;;;;;;9.05;4.50;;;;;;;25.89;38.87;97500.25;5025649;28;22024;-33
2021/10/09 11:20:58;;;;;;;13.57;5.07;;;;;;;25.92;38.47;97505.34;5028847;28;20762;-39
2021/10/09 11:23:24;;;;;;;8.65;5.53;;;;;;;25.95;36.59;97506.09;5027595;28;20029;-39
2021/10/09 11:25:49;;;;;;;9.85;5.13;;;;;;;26.05;37.64;97510.94;5026082;28;20021;-35
2021/10/09 11:28:18;;;;;;;13.40;5.05;;;;;;;26.16;36.67;97507.88;5025475;28;20514;-35
2021/10/09 11:30:44;;;;;;;9.63;5.32;;;;;;;26.25;35.50;97496.94;5029155;28;20797;-35
2021/10/09 11:33:09;;;;;;;10.20;5.47;;;;;;;26.41;34.53;97496.28;5018542;28;20037;-34
2021/10/09 11:35:36;;;;;;;8.57;5.85;;;;;;;26.57;33.91;97502.56;5003836;28;20410;-33
2021/10/09 11:38:04;;;;;;;11.30;6.05;;;;;;;26.72;33.50;97489.66;5017356;28;20523;-34
2021/10/09 11:40:30;;;;;;;8.48;5.28;;;;;;;26.87;34.03;97499.47;5024478;28;20017;-37
2021/10/09 11:42:59;;;;;;;11.00;5.85;;;;;;;27.02;33.18;97491.81;5018532;28;20028;-37
2021/10/09 11:53:40;;;;;;;10.82;4.75;;;;;;;27.59;35.08;97485.56;4997093;28;20205;-36
2021/10/09 11:56:07;;;;;;;12.05;4.60;;;;;;;27.73;34.91;97486.69;4998096;28;20030;-34
2021/10/09 11:58:47;;;;;;;8.43;4.57;;;;;;;27.83;34.85;97493.19;5007144;28;20480;-32
2021/10/09 12:01:26;;;;;;;10.48;4.25;;;;;;;27.91;34.52;97485.75;5004531;28;20045;-35
2021/10/09 12:03:51;;;;;;;9.55;4.20;;;;;;;27.98;34.81;97485.44;5000555;28;20109;-34
2021/10/09 12:06:17;;;;;;;12.05;4.28;;;;;;;28.03;34.77;97483.41;5002901;28;20465;-32
2021/10/09 12:08:53;;;;;;;11.25;5.05;;;;;;;28.09;35.02;97482.25;5005210;28;20037;-34
2021/10/09 12:11:23;;;;;;;16.58;4.75;;;;;;;28.11;35.12;97481.25;5006373;28;20037;-34
2021/10/09 12:13:54;;;;;;;16.70;5.00;;;;;;;28.14;34.91;97474.97;5005436;28;20096;-31
2021/10/09 12:16:28;;;;;;;15.07;4.70;;;;;;;28.15;35.04;97476.69;5007851;28;20053;-30
2021/10/09 12:19:04;;;;;;;17.58;4.50;;;;;;;28.18;34.74;97482.63;5010361;28;20037;-30
2021/10/09 12:21:35;;;;;;;19.13;4.45;;;;;;;28.17;34.87;97475.66;5004732;28;20465;-32
2021/10/09 12:24:17;;;;;;;13.83;6.13;;;;;;;28.19;34.39;97478.22;5000897;28;20029;-36
2021/10/09 12:26:42;;;;;;;;;;;;;;;28.22;34.45;97472.78;5014214;28;20288;-36
2021/10/09 12:29:12;;;;;;;46.83;23.67;;;;;;;28.22;34.61;97464.88;5006422;28;19928;-31
2021/10/09 12:31:43;;;;;;;80.20;38.75;;;;;;;28.22;34.50;97471.94;5004063;28;20043;-36
2021/10/09 12:34:33;;;;;;;160.23;71.53;;;;;;;28.20;34.46;97466.75;5010643;28;20691;-34
2021/10/09 12:37:08;;;;;;;269.42;136.80;;;;;;;28.17;34.38;97467.75;5008087;28;20060;-30
2021/10/09 12:39:34;;;;;;;380.48;205.75;;;;;;;28.14;34.44;97456.50;5010864;28;20021;-32
2021/10/09 12:41:59;;;;;;;415.95;251.35;;;;;;;28.09;34.62;97453.28;5009713;28;20029;-34
2021/10/09 12:44:24;;;;;;;453.20;282.80;;;;;;;28.04;34.92;97456.16;5007244;28;20506;-31
2021/10/09 12:46:50;;;;;;;501.50;332.38;;;;;;;27.99;34.68;97460.81;5009211;28;20037;-30
2021/10/09 12:49:16;;;;;;;519.80;356.90;;;;;;;27.91;34.96;97458.56;5008146;28;20220;-34
2021/10/09 12:51:42;;;;;;;511.38;345.02;;;;;;;27.85;34.88;97459.75;5006101;28;20918;-29
2021/10/09 12:54:08;;;;;;;200.60;107.95;;;;;;;27.75;30.14;97453.22;5005841;28;20111;-32
2021/10/09 12:56:34;;;;;;;233.95;134.13;;;;;;;27.59;29.62;97454.00;5010814;28;20032;-35
2021/10/09 12:59:00;;;;;;;267.42;144.77;;;;;;;27.48;29.71;97458.91;5007382;28;20026;-32
2021/10/09 13:01:25;;;;;;;181.07;103.28;;;;;;;27.34;29.41;97460.47;5011100;28;20786;-29
2021/10/09 13:03:51;;;;;;;133.30;72.60;;;;;;;27.20;28.96;97447.13;5008161;28;20041;-37
2021/10/09 13:06:16;;;;;;;116.03;62.13;;;;;;;27.05;29.10;97449.59;5007607;28;20029;-36
2021/10/09 13:08:41;;;;;;;72.88;42.45;;;;;;;26.93;28.71;97450.13;5005181;28;20034;-33
2021/10/09 13:11:07;;;;;;;53.08;30.38;;;;;;;26.79;28.45;97443.75;4987450;28;20046;-30
2021/10/09 13:13:32;;;;;;;47.55;27.17;;;;;;;26.67;28.41;97444.31;4979016;28;20436;-34
2021/10/09 13:15:58;;;;;;;57.80;29.65;;;;;;;26.55;28.91;97449.19;4985015;28;20100;-30
2021/10/09 13:18:23;;;;;;;38.20;20.92;;;;;;;26.45;29.00;97440.03;4977475;28;20571;-31
2021/10/09 13:20:48;;;;;;;31.05;19.67;;;;;;;26.35;28.58;97440.47;4981853;28;20026;-31
2021/10/09 13:23:14;;;;;;;33.20;16.67;;;;;;;26.26;28.90;97435.63;4979872;28;20033;-35
2021/10/09 13:25:40;;;;;;;45.88;20.60;;;;;;;26.21;28.90;97442.84;4983180;28;20033;-37
2021/10/09 13:28:06;;;;;;;23.70;16.60;;;;;;;26.16;29.03;97439.56;4980829;28;20030;-32
2021/10/09 13:30:31;;;;;;;25.23;14.75;;;;;;;26.13;29.00;97450.19;4978879;28;20271;-32
2021/10/09 13:32:57;;;;;;;21.35;13.70;;;;;;;26.11;29.25;97442.38;4979921;28;20615;-30
2021/10/09 13:35:22;;;;;;;24.45;13.25;;;;;;;26.07;29.42;97441.66;4982223;28;20543;-32
2021/10/09 13:37:52;;;;;;;24.88;13.48;;;;;;;26.06;29.58;97444.34;4976707;28;20045;-30
2021/10/09 13:40:17;;;;;;;20.70;13.70;;;;;;;26.03;29.75;97434.84;4986458;28;20014;-36
2021/10/09 13:42:43;;;;;;;25.45;12.68;;;;;;;26.03;30.05;97440.09;4981973;28;20408;-34
2021/10/09 13:45:08;;;;;;;19.13;12.25;;;;;;;26.04;30.44;97440.94;4997508;28;20057;-31
2021/10/09 13:47:34;;;;;;;18.15;11.93;;;;;;;26.03;30.66;97440.09;4990661;28;20029;-35
2021/10/09 13:50:00;;;;;;;18.50;11.23;;;;;;;26.03;30.73;97437.47;4993981;28;20021;-31